DRI-NNSC Building Weather observations

Data are for 10 minute period ending at time listed.
 Day   Time   Solar   Ave.   Ave.  Ave.  Vector  Max.   Baro.   Total    
  of    of     Rad.   Air    Rel.  Wind   Wind   Wind  Press.  Precip.   
Year   Day            Temp.  Hum.  Speed  Dir.   Gust                    
2017   (PST)  Kw/m2    F      %     mph   deg.    mph    mb.     in.     
-------------------------------------------------------------------------
  35   21:00   0.00   42.2     0    3.1   335      7   848.6    0.00 
  35   21:10   0.00   42.2     0    4.2   330      6   848.7    0.00 
  35   21:20   0.00   42.4     0    3.7   315      6   848.8    0.00 
  35   21:30   0.00   42.7     0    2.8   287      5   848.9    0.00 
  35   21:40   0.00   43.0     0    4.1   354      9   848.8    0.00 
  35   21:50   0.00   42.9     0    5.1   315     11   848.9    0.00 
  35   22:00   0.00   43.3     0    4.8   243     12   848.9    0.00 
  35   22:10   0.00   43.7     0    5.5   327     10   848.8    0.00 
  35   22:20   0.00   43.2     0    6.0   226     12   848.9    0.00 
  35   22:30   0.00   41.9     0    2.4   175      7   849.1    0.00 
  35   22:40   0.00   41.1     0    1.2   227      3   849.1    0.00 
  35   22:50   0.00   41.2     0    0.9   121      3   848.9    0.00 
  35   23:00   0.00   41.2     0    1.9   260      4   848.9    0.00 
  35   23:10   0.00   40.9     0    2.5   331      6   848.9    0.00 
  35   23:20   0.00   40.8     0    3.1   331      5   849.1    0.00 
  35   23:30   0.00   41.4     0    2.5   304      4   849.2    0.00 
  35   23:40   0.00   41.8     0    3.7   298      7   849.3    0.00 
  35   23:50   0.00   41.2     0    4.4   313      6   849.4    0.00 
  36    0:00   0.00   40.8     0    2.8   324      6   849.2    0.00 
  36    0:10   0.00   41.5     0    4.1   269      7   849.1    0.00 
  36    0:20   0.00   42.3     0    4.3   264      8   849.0    0.00 
  36    0:30   0.00   42.1     0    5.7   295     10   848.9    0.00 
  36    0:40   0.00   41.9     0    4.7   304      8   848.8    0.00 
  36    0:50   0.00   41.6     0    5.1   320      9   848.6    0.00 
  36    1:00   0.00   41.0     0    4.7   309      8   848.4    0.00 
  36    1:10   0.00   40.2     0    4.1   319      6   848.4    0.00 
  36    1:20   0.00   39.5     0    3.6     5      7   848.5    0.00 
  36    1:30   0.00   37.2     0    3.8    49      6   848.5    0.00 
  36    1:40   0.00   38.3     0    4.1    41      6   848.5    0.00 
  36    1:50   0.00   38.7     0    4.3    40      6   848.3    0.00 
  36    2:00   0.00   39.1     0    3.2    50      4   848.2    0.00 
  36    2:10   0.00   38.7     0    2.8    44      4   848.2    0.00 
  36    2:20   0.00   37.9     0    2.9    26      4   848.2    0.00 
  36    2:30   0.00   37.6     0    4.1    42      5   848.2    0.00 
  36    2:40   0.00   38.5     0    3.6    44      5   848.1    0.00 
  36    2:50   0.00   38.8     0    3.0    38      5   848.0    0.00 
  36    3:00   0.00   37.9     0    1.5   332      3   848.0    0.00 
  36    3:10   0.00   37.3     0    2.9   322      5   847.8    0.00 
  36    3:20   0.00   37.8     0    1.6   350      3   847.7    0.00 
  36    3:30   0.00   38.8     0    0.9    88      3   847.7    0.00 
  36    3:40   0.00   38.4     0    0.4    60      1   847.6    0.00 
  36    3:50   0.00   37.8     0    1.4   329      2   847.5    0.00 
  36    4:00   0.00   37.9     0    1.5     4      3   847.4    0.00 
  36    4:10   0.00   38.0     0    2.7    28      4   847.2    0.00 
  36    4:20   0.00   38.4     0    2.9    77      4   847.1    0.00 
  36    4:30   0.00   37.9     0    3.1    41      4   847.0    0.00 
  36    4:40   0.00   38.0     0    1.2    45      3   847.1    0.00 
  36    4:50   0.00   37.9     0    3.0    68      5   847.1    0.00 
  36    5:00   0.00   37.0     0    4.3    46      6   846.9    0.00 
  36    5:10   0.00   37.4     0    2.2    24      5   846.9    0.00 
  36    5:20   0.00   36.9     0    2.9   324      5   846.9    0.00 
  36    5:30   0.00   37.7     0    1.8   314      3   846.7    0.00 
  36    5:40   0.00   37.6     0    2.7    99      6   846.7    0.00 
  36    5:50   0.00   36.4     0    4.3    44      6   846.7    0.00 
  36    6:00   0.00   37.9     0    5.8    53      7   846.6    0.00 
  36    6:10   0.00   37.5     0    3.2    48      7   846.5    0.00 
  36    6:20   0.00   36.1     0    1.7   147      4   846.5    0.00 
  36    6:30   0.00   36.2     0    4.1    61      7   846.5    0.00 
  36    6:40   0.00   35.9     0    3.3    14      6   846.6    0.00 
  36    6:50   0.00   35.0     0    2.0    16      4   846.6    0.00 
  36    7:00   0.00   35.2     0    1.9   344      3   846.5    0.00 
  36    7:10   0.00   36.0     0    1.1   240      3   846.5    0.00 
  36    7:20   0.01   37.3     0    2.7    24      5   846.3    0.00 
  36    7:30   0.02   36.9     0    2.3   292      5   846.3    0.00 
  36    7:40   0.04   36.9     0    1.5   297      4   846.4    0.00 
  36    7:50   0.07   37.5     0    2.5   320      4   846.4    0.00 
  36    8:00   0.10   39.5     0    1.9   321      4   846.3    0.00 
  36    8:10   0.11   38.6     0    2.2    55      5   846.4    0.00 
  36    8:20   0.12   39.3     0    1.0   122      2   846.4    0.00 
  36    8:30   0.18   39.4     0    2.4   270      6   846.4    0.00 
  36    8:40   0.21   40.9     0    2.4    58      4   846.3    0.00 
  36    8:50   0.24   42.2     0    1.7    49      5   846.3    0.00 
  36    9:00   0.26   42.5     0    3.1   305      7   846.4    0.00 
  36    9:10   0.26   42.5     0    2.1   355      4   846.2    0.00 
  36    9:20   0.24   43.4     0    3.1   115      5   846.1    0.00 
  36    9:30   0.28   42.9     0    1.8   124      4   846.2    0.00 
  36    9:40   0.34   43.3     0    2.0   232      6   846.1    0.00 
  36    9:50   0.33   44.2     0    1.9   355      5   846.0    0.00 
  36   10:00   0.33   44.9     0    2.0    94      5   845.9    0.00 
  36   10:10   0.40   44.7     0    2.2    85      8   845.9    0.00 
  36   10:20   0.36   45.9     0    1.7   204      7   845.9    0.00 
  36   10:30   0.46   46.8     0    2.7   211     10   845.7    0.00 
  36   10:40   0.42   48.5     0    5.3   192     10   845.8    0.00 
  36   10:50   0.33   48.8     0    8.3   222     17   845.6    0.00 
  36   11:00   0.38   50.2     0    7.7   204     14   845.3    0.00 
  36   11:10   0.54   51.6     0    7.2   178     15   845.0    0.00 
  36   11:20   0.55   52.5     0    8.2   174     16   844.8    0.00 
  36   11:30   0.27   52.8     0    9.3   176     19   844.6    0.00 
  36   11:40   0.20   51.9     0   11.7   173     28   844.2    0.00 
  36   11:50   0.11   50.6     0   13.4   174     26   844.0    0.00 
  36   12:00   0.11   50.2     0   13.3   170     26   843.5    0.00 
  36   12:10   0.13   50.6     0   13.4   166     25   843.1    0.00 
  36   12:20   0.14   50.8     0   14.0   165     28   842.8    0.00 
  36   12:30   0.17   51.0     0   17.5   162     32   842.4    0.00 
  36   12:40   0.35   51.9     0   14.5   164     28   842.1    0.00 
  36   12:50   0.67   53.5     0   16.0   165     25   841.9    0.00 
  36   13:00   0.56   54.6     0   13.6   169     24   841.8    0.00 
  36   13:10   0.52   54.9     0   11.3   168     24   841.6    0.00 
  36   13:20   0.36   54.3     0   11.0   160     22   841.4    0.00 
  36   13:30   0.42   54.4     0   12.0   167     22   841.2    0.00 
  36   13:40   0.38   54.6     0   11.8   166     25   840.9    0.00 
  36   13:50   0.41   55.0     0   11.8   165     22   840.6    0.00 
  36   14:00   0.43   55.8     0   12.3   169     28   840.3    0.00 
  36   14:10   0.43   56.2     0   12.4   169     23   840.3    0.00 
  36   14:20   0.42   56.5     0    9.2   181     20   840.1    0.00 
  36   14:30   0.39   56.6     0   12.9   176     25   840.0    0.00 
  36   14:40   0.47   56.5     0   13.0   176     28   839.8    0.00 
  36   14:50   0.44   57.0     0   12.3   185     27   839.7    0.00 
  36   15:00   0.48   56.8     0   13.4   173     31   839.6    0.00 
  36   15:10   0.47   57.0     0   13.3   172     31   839.5    0.00 
  36   15:20   0.46   56.8     0   13.8   173     28   839.3    0.00 
  36   15:30   0.40   56.4     0   15.9   174     31   839.2    0.00 
  36   15:40   0.38   56.8     0   11.8   177     24   839.2    0.00 
  36   15:50   0.35   56.4     0   13.0   171     27   839.2    0.00 
  36   16:00   0.35   55.9     0   13.2   173     28   839.0    0.00 
  36   16:10   0.28   55.6     0   12.9   170     27   838.9    0.00 
  36   16:20   0.23   55.1     0   12.5   172     24   838.6    0.00 
  36   16:30   0.17   54.5     0   11.3   177     28   838.5    0.00 
  36   16:40   0.12   53.6     0   13.9   179     30   838.4    0.00 
  36   16:50   0.06   52.2     0   13.5   178     30   838.5    0.00 
  36   17:00   0.04   51.4     0   14.0   191     27   838.5    0.00 
  36   17:10   0.03   50.8     0   13.1   179     28   838.4    0.00 
  36   17:20   0.03   50.3     0   14.0   197     26   838.5    0.00 
  36   17:30   0.01   49.7     0   12.8   193     26   838.6    0.00 
  36   17:40   0.00   49.2     0   13.0   193     27   838.5    0.00 
  36   17:50   0.00   48.6     0   13.8   178     26   838.2    0.00 
  36   18:00   0.00   47.9     0   13.4   174     29   838.0    0.00 
  36   18:10   0.00   47.5     0   12.9   168     28   837.6    0.00 
  36   18:20   0.00   47.1     0   12.8   172     26   837.5    0.00 
  36   18:30   0.00   47.5     0   15.6   165     33   837.2    0.00 
  36   18:40   0.00   47.5     0   13.9   165     23   837.1    0.00 
  36   18:50   0.00   47.7     0   13.1   166     26   837.0    0.00 
  36   19:00   0.00   47.9     0   15.7   161     29   836.8    0.00 
  36   19:10   0.00   48.0     0   17.0   158     33   836.8    0.00 
  36   19:20   0.00   47.7     0    9.1   230     19   837.6    0.00 
  36   19:30   0.00   45.8     0   16.3   255     35   837.6    0.00 
  36   19:40   0.00   40.9     0   14.3   257     27   838.2    0.00 
  36   19:50   0.00   39.2     0   12.3   269     22   837.5    0.00 
  36   20:00   0.00   40.5     0    9.7   206     22   837.7    0.00 
  36   20:10   0.00   41.4     0   11.0   190     29   837.9    0.00 
  36   20:20   0.00   41.5     0   16.9   176     37   837.4    0.00 
  36   20:30   0.00   40.7     0   18.5   171     38   837.4    0.00 
  36   20:40   0.00   40.1     0   18.2   168     37   837.4    0.00 
  36   20:50   0.00   38.7     0   14.6   167     32   837.5    0.00 

Return to NNSC graphs page.


Western Regional Climate Center,wrcc@dri.edu